Airport View

Enter AWOS ICAO identifier for current METAR.

ex. KFNL

KHZE 051345Z AUTO 36003KT 4SM BR OVC004 16/16 A2998 RMK AO2

5 Aug 2020 13:47

Frequency: 118.675

Phone: 701-748-2443

Other Area AWOS: KN60 - KD57 - KY19 - KBIS

TAF KBIS 051120Z 0512/0612 VRB05KT P6SM BKN009 OVC012 FM051500 32007KT P6SM FEW027 SCT045 FM052100 36010KT P6SM FEW045 FEW120 FM060200 04005KT P6SM SKC